FE Warren AFB, Wyoming
Current Conditions -  °F | °C
As of 2:56 AM on Saturday 25 Oct 2014 (Local Time) from KFEW Reporting Station
Clear Clear  
Wind Chill: 39°   Ceiling: Unl
Heat Index: 44°   Visibility: 10mi
Dew Point: 22°   Wind: 9mph
Humidity: 42%   Direction: 320°NW
Pressure: 30.22"   Gusts: NA
Location:  41.139°N, 104.862°W
Report Text: KFEW 250856Z AUTO 32008KT 10SM CLR 07/M05 A3022 RMK AO2 SLP171 T00671053 53003 $
Loading
Personal Weather Stations






























Interactive Weather Map
Tropical Storm Tracking
New forecast layout! Learn more

10-Day Weather Forecast

Advertisements
Track Severe Weather on mobile